sensor_id;sensor_type;location;lat;lon;timestamp;P1;durP1;ratioP1;P2;durP2;ratioP2
17251;SDS011;8742;51.716;8.790;2022-10-29T00:01:23;16.60;;;6.17;;
17251;SDS011;8742;51.716;8.790;2022-10-29T00:03:50;20.67;;;6.53;;
17251;SDS011;8742;51.716;8.790;2022-10-29T00:06:16;20.50;;;5.93;;
17251;SDS011;8742;51.716;8.790;2022-10-29T00:08:43;21.70;;;5.93;;
17251;SDS011;8742;51.716;8.790;2022-10-29T00:11:11;32.63;;;5.87;;
17251;SDS011;8742;51.716;8.790;2022-10-29T00:13:39;17.13;;;6.43;;
17251;SDS011;8742;51.716;8.790;2022-10-29T00:16:09;15.93;;;5.93;;
17251;SDS011;8742;51.716;8.790;2022-10-29T00:18:37;23.73;;;6.73;;
17251;SDS011;8742;51.716;8.790;2022-10-29T00:21:04;16.87;;;5.57;;
17251;SDS011;8742;51.716;8.790;2022-10-29T00:23:33;17.47;;;5.73;;
17251;SDS011;8742;51.716;8.790;2022-10-29T00:26:01;18.33;;;5.90;;
17251;SDS011;8742;51.716;8.790;2022-10-29T00:28:28;15.67;;;6.07;;
17251;SDS011;8742;51.716;8.790;2022-10-29T00:30:55;19.00;;;6.43;;
17251;SDS011;8742;51.716;8.790;2022-10-29T00:33:23;22.20;;;6.67;;
17251;SDS011;8742;51.716;8.790;2022-10-29T00:35:54;14.73;;;6.37;;
17251;SDS011;8742;51.716;8.790;2022-10-29T00:38:21;20.17;;;6.60;;
17251;SDS011;8742;51.716;8.790;2022-10-29T00:40:47;17.70;;;5.90;;
17251;SDS011;8742;51.716;8.790;2022-10-29T00:43:15;23.37;;;6.73;;
17251;SDS011;8742;51.716;8.790;2022-10-29T00:45:44;19.27;;;6.20;;
17251;SDS011;8742;51.716;8.790;2022-10-29T00:48:13;13.43;;;5.73;;
17251;SDS011;8742;51.716;8.790;2022-10-29T00:50:42;30.93;;;6.47;;
17251;SDS011;8742;51.716;8.790;2022-10-29T00:53:11;19.40;;;6.20;;
17251;SDS011;8742;51.716;8.790;2022-10-29T00:55:37;22.53;;;6.07;;
17251;SDS011;8742;51.716;8.790;2022-10-29T00:58:05;14.17;;;5.83;;
17251;SDS011;8742;51.716;8.790;2022-10-29T01:00:32;32.73;;;7.03;;
17251;SDS011;8742;51.716;8.790;2022-10-29T01:02:58;20.17;;;6.23;;
17251;SDS011;8742;51.716;8.790;2022-10-29T01:05:25;18.70;;;6.50;;
17251;SDS011;8742;51.716;8.790;2022-10-29T01:07:55;22.27;;;6.43;;
17251;SDS011;8742;51.716;8.790;2022-10-29T01:10:24;20.60;;;6.83;;
17251;SDS011;8742;51.716;8.790;2022-10-29T01:13:01;16.17;;;6.60;;
17251;SDS011;8742;51.716;8.790;2022-10-29T01:15:37;18.13;;;5.50;;
17251;SDS011;8742;51.716;8.790;2022-10-29T01:18:12;21.60;;;6.63;;
17251;SDS011;8742;51.716;8.790;2022-10-29T01:24:08;27.67;;;6.30;;
17251;SDS011;8742;51.716;8.790;2022-10-29T01:30:05;19.97;;;5.70;;
17251;SDS011;8742;51.716;8.790;2022-10-29T01:32:44;24.53;;;7.20;;
17251;SDS011;8742;51.716;8.790;2022-10-29T01:35:23;16.87;;;6.10;;
17251;SDS011;8742;51.716;8.790;2022-10-29T01:38:04;15.17;;;6.03;;
17251;SDS011;8742;51.716;8.790;2022-10-29T01:40:37;16.10;;;6.20;;
17251;SDS011;8742;51.716;8.790;2022-10-29T01:43:11;16.50;;;6.60;;
17251;SDS011;8742;51.716;8.790;2022-10-29T01:45:42;25.80;;;7.13;;
17251;SDS011;8742;51.716;8.790;2022-10-29T01:48:14;12.73;;;6.10;;
17251;SDS011;8742;51.716;8.790;2022-10-29T01:50:46;29.50;;;6.73;;
17251;SDS011;8742;51.716;8.790;2022-10-29T01:53:17;22.03;;;7.37;;
17251;SDS011;8742;51.716;8.790;2022-10-29T01:55:45;17.93;;;6.80;;
17251;SDS011;8742;51.716;8.790;2022-10-29T01:58:11;20.23;;;6.57;;
17251;SDS011;8742;51.716;8.790;2022-10-29T02:00:40;25.43;;;7.27;;
17251;SDS011;8742;51.716;8.790;2022-10-29T02:03:18;22.47;;;7.07;;
17251;SDS011;8742;51.716;8.790;2022-10-29T02:05:55;20.87;;;7.07;;
17251;SDS011;8742;51.716;8.790;2022-10-29T02:08:30;16.73;;;6.07;;
17251;SDS011;8742;51.716;8.790;2022-10-29T02:11:08;20.63;;;6.30;;
17251;SDS011;8742;51.716;8.790;2022-10-29T02:13:41;22.20;;;6.33;;
17251;SDS011;8742;51.716;8.790;2022-10-29T02:16:11;12.13;;;5.73;;
17251;SDS011;8742;51.716;8.790;2022-10-29T02:18:41;24.57;;;6.57;;
17251;SDS011;8742;51.716;8.790;2022-10-29T02:21:09;24.40;;;6.47;;
17251;SDS011;8742;51.716;8.790;2022-10-29T02:23:39;18.77;;;6.47;;
17251;SDS011;8742;51.716;8.790;2022-10-29T02:26:06;18.57;;;6.37;;
17251;SDS011;8742;51.716;8.790;2022-10-29T02:28:33;15.10;;;6.53;;
17251;SDS011;8742;51.716;8.790;2022-10-29T02:30:59;21.70;;;6.63;;
17251;SDS011;8742;51.716;8.790;2022-10-29T02:33:26;23.53;;;6.50;;
17251;SDS011;8742;51.716;8.790;2022-10-29T02:35:54;25.20;;;6.80;;
17251;SDS011;8742;51.716;8.790;2022-10-29T02:38:21;28.60;;;6.60;;
17251;SDS011;8742;51.716;8.790;2022-10-29T02:40:48;17.60;;;6.87;;
17251;SDS011;8742;51.716;8.790;2022-10-29T02:43:15;19.97;;;7.50;;
17251;SDS011;8742;51.716;8.790;2022-10-29T02:45:42;31.23;;;7.20;;
17251;SDS011;8742;51.716;8.790;2022-10-29T02:48:08;18.17;;;6.97;;
17251;SDS011;8742;51.716;8.790;2022-10-29T02:50:35;20.77;;;7.60;;
17251;SDS011;8742;51.716;8.790;2022-10-29T02:53:03;23.33;;;7.47;;
17251;SDS011;8742;51.716;8.790;2022-10-29T02:55:30;23.40;;;6.87;;
17251;SDS011;8742;51.716;8.790;2022-10-29T02:57:57;22.40;;;7.07;;
17251;SDS011;8742;51.716;8.790;2022-10-29T03:00:24;20.57;;;6.80;;
17251;SDS011;8742;51.716;8.790;2022-10-29T03:02:51;17.27;;;6.33;;
17251;SDS011;8742;51.716;8.790;2022-10-29T03:05:17;17.27;;;6.90;;
17251;SDS011;8742;51.716;8.790;2022-10-29T03:07:44;19.00;;;7.97;;
17251;SDS011;8742;51.716;8.790;2022-10-29T03:10:12;21.40;;;7.30;;
17251;SDS011;8742;51.716;8.790;2022-10-29T03:12:39;21.27;;;7.93;;
17251;SDS011;8742;51.716;8.790;2022-10-29T03:15:06;22.30;;;7.73;;
17251;SDS011;8742;51.716;8.790;2022-10-29T03:17:33;21.93;;;8.13;;
17251;SDS011;8742;51.716;8.790;2022-10-29T03:20:00;25.57;;;8.00;;
17251;SDS011;8742;51.716;8.790;2022-10-29T03:22:27;32.03;;;8.37;;
17251;SDS011;8742;51.716;8.790;2022-10-29T03:24:54;22.37;;;7.67;;
17251;SDS011;8742;51.716;8.790;2022-10-29T03:27:22;18.57;;;8.20;;
17251;SDS011;8742;51.716;8.790;2022-10-29T03:29:49;12.47;;;7.40;;
17251;SDS011;8742;51.716;8.790;2022-10-29T03:32:15;20.33;;;8.27;;
17251;SDS011;8742;51.716;8.790;2022-10-29T03:34:42;30.03;;;8.27;;
17251;SDS011;8742;51.716;8.790;2022-10-29T03:37:09;27.80;;;7.73;;
17251;SDS011;8742;51.716;8.790;2022-10-29T03:39:36;18.70;;;8.03;;
17251;SDS011;8742;51.716;8.790;2022-10-29T03:42:03;19.53;;;6.90;;
17251;SDS011;8742;51.716;8.790;2022-10-29T03:44:31;19.63;;;7.53;;
17251;SDS011;8742;51.716;8.790;2022-10-29T03:46:58;25.23;;;7.63;;
17251;SDS011;8742;51.716;8.790;2022-10-29T03:49:25;19.43;;;7.60;;
17251;SDS011;8742;51.716;8.790;2022-10-29T03:51:51;19.27;;;7.90;;
17251;SDS011;8742;51.716;8.790;2022-10-29T03:54:18;30.20;;;8.30;;
17251;SDS011;8742;51.716;8.790;2022-10-29T03:56:45;18.60;;;8.10;;
17251;SDS011;8742;51.716;8.790;2022-10-29T03:59:12;18.73;;;8.40;;
17251;SDS011;8742;51.716;8.790;2022-10-29T04:01:40;23.17;;;7.87;;
17251;SDS011;8742;51.716;8.790;2022-10-29T04:04:08;23.97;;;8.00;;
17251;SDS011;8742;51.716;8.790;2022-10-29T04:06:34;20.07;;;8.57;;
17251;SDS011;8742;51.716;8.790;2022-10-29T04:09:01;28.53;;;9.10;;
17251;SDS011;8742;51.716;8.790;2022-10-29T04:11:28;26.73;;;8.73;;
17251;SDS011;8742;51.716;8.790;2022-10-29T04:13:55;28.57;;;10.03;;
17251;SDS011;8742;51.716;8.790;2022-10-29T04:16:22;23.27;;;8.70;;
17251;SDS011;8742;51.716;8.790;2022-10-29T04:18:50;23.57;;;9.30;;
17251;SDS011;8742;51.716;8.790;2022-10-29T04:21:17;29.27;;;9.60;;
17251;SDS011;8742;51.716;8.790;2022-10-29T04:23:44;25.00;;;9.33;;
17251;SDS011;8742;51.716;8.790;2022-10-29T04:26:10;31.50;;;9.53;;
17251;SDS011;8742;51.716;8.790;2022-10-29T04:28:37;23.50;;;9.20;;
17251;SDS011;8742;51.716;8.790;2022-10-29T04:31:04;27.23;;;9.63;;
17251;SDS011;8742;51.716;8.790;2022-10-29T04:33:32;22.90;;;9.03;;
17251;SDS011;8742;51.716;8.790;2022-10-29T04:36:00;15.70;;;8.57;;
17251;SDS011;8742;51.716;8.790;2022-10-29T04:38:26;29.17;;;8.93;;
17251;SDS011;8742;51.716;8.790;2022-10-29T04:40:56;24.10;;;8.90;;
17251;SDS011;8742;51.716;8.790;2022-10-29T04:43:23;29.87;;;9.67;;
17251;SDS011;8742;51.716;8.790;2022-10-29T04:45:51;25.17;;;9.53;;
17251;SDS011;8742;51.716;8.790;2022-10-29T04:48:18;30.23;;;9.07;;
17251;SDS011;8742;51.716;8.790;2022-10-29T04:50:45;20.87;;;8.33;;
17251;SDS011;8742;51.716;8.790;2022-10-29T04:53:14;27.13;;;8.70;;
17251;SDS011;8742;51.716;8.790;2022-10-29T04:55:41;29.97;;;10.13;;
17251;SDS011;8742;51.716;8.790;2022-10-29T04:58:10;16.43;;;8.97;;
17251;SDS011;8742;51.716;8.790;2022-10-29T05:00:38;24.47;;;9.20;;
17251;SDS011;8742;51.716;8.790;2022-10-29T05:03:05;23.67;;;8.50;;
17251;SDS011;8742;51.716;8.790;2022-10-29T05:05:32;30.97;;;9.70;;
17251;SDS011;8742;51.716;8.790;2022-10-29T05:08:00;21.30;;;8.40;;
17251;SDS011;8742;51.716;8.790;2022-10-29T05:10:30;25.23;;;9.10;;
17251;SDS011;8742;51.716;8.790;2022-10-29T05:12:58;18.30;;;8.30;;
17251;SDS011;8742;51.716;8.790;2022-10-29T05:15:27;15.97;;;8.27;;
17251;SDS011;8742;51.716;8.790;2022-10-29T05:17:54;23.90;;;8.73;;
17251;SDS011;8742;51.716;8.790;2022-10-29T05:20:22;28.97;;;9.27;;
17251;SDS011;8742;51.716;8.790;2022-10-29T05:22:49;23.00;;;8.70;;
17251;SDS011;8742;51.716;8.790;2022-10-29T05:25:22;21.67;;;9.10;;
17251;SDS011;8742;51.716;8.790;2022-10-29T05:27:51;24.33;;;9.20;;
17251;SDS011;8742;51.716;8.790;2022-10-29T05:30:26;25.13;;;8.67;;
17251;SDS011;8742;51.716;8.790;2022-10-29T05:32:53;28.30;;;8.90;;
17251;SDS011;8742;51.716;8.790;2022-10-29T05:35:19;23.37;;;8.20;;
17251;SDS011;8742;51.716;8.790;2022-10-29T05:37:49;23.80;;;8.70;;
17251;SDS011;8742;51.716;8.790;2022-10-29T05:40:16;24.77;;;8.83;;
17251;SDS011;8742;51.716;8.790;2022-10-29T05:42:43;32.60;;;9.00;;
17251;SDS011;8742;51.716;8.790;2022-10-29T05:45:11;28.67;;;8.70;;
17251;SDS011;8742;51.716;8.790;2022-10-29T05:47:38;16.33;;;8.57;;
17251;SDS011;8742;51.716;8.790;2022-10-29T05:50:05;26.23;;;8.30;;
17251;SDS011;8742;51.716;8.790;2022-10-29T05:52:32;22.43;;;8.57;;
17251;SDS011;8742;51.716;8.790;2022-10-29T05:54:59;27.43;;;8.40;;
17251;SDS011;8742;51.716;8.790;2022-10-29T05:57:26;18.73;;;8.50;;
17251;SDS011;8742;51.716;8.790;2022-10-29T05:59:53;19.33;;;8.10;;
17251;SDS011;8742;51.716;8.790;2022-10-29T06:02:21;24.80;;;8.43;;
17251;SDS011;8742;51.716;8.790;2022-10-29T06:04:48;23.70;;;8.00;;
17251;SDS011;8742;51.716;8.790;2022-10-29T06:07:15;15.37;;;7.93;;
17251;SDS011;8742;51.716;8.790;2022-10-29T06:09:42;21.73;;;8.23;;
17251;SDS011;8742;51.716;8.790;2022-10-29T06:12:09;17.73;;;8.17;;
17251;SDS011;8742;51.716;8.790;2022-10-29T06:14:35;23.33;;;8.17;;
17251;SDS011;8742;51.716;8.790;2022-10-29T06:17:02;16.47;;;7.23;;
17251;SDS011;8742;51.716;8.790;2022-10-29T06:19:30;21.07;;;8.17;;
17251;SDS011;8742;51.716;8.790;2022-10-29T06:21:57;21.73;;;8.20;;
17251;SDS011;8742;51.716;8.790;2022-10-29T06:24:24;22.63;;;8.83;;
17251;SDS011;8742;51.716;8.790;2022-10-29T06:26:51;19.67;;;8.50;;
17251;SDS011;8742;51.716;8.790;2022-10-29T06:29:18;19.87;;;7.53;;
17251;SDS011;8742;51.716;8.790;2022-10-29T06:31:45;23.60;;;7.80;;
17251;SDS011;8742;51.716;8.790;2022-10-29T06:34:11;20.60;;;8.17;;
17251;SDS011;8742;51.716;8.790;2022-10-29T06:36:40;22.43;;;7.40;;
17251;SDS011;8742;51.716;8.790;2022-10-29T06:39:06;15.47;;;6.90;;
17251;SDS011;8742;51.716;8.790;2022-10-29T06:41:33;23.53;;;7.70;;
17251;SDS011;8742;51.716;8.790;2022-10-29T06:44:00;20.33;;;7.43;;
17251;SDS011;8742;51.716;8.790;2022-10-29T06:46:27;21.73;;;7.53;;
17251;SDS011;8742;51.716;8.790;2022-10-29T06:48:55;17.70;;;6.90;;
17251;SDS011;8742;51.716;8.790;2022-10-29T06:51:21;24.60;;;7.83;;
17251;SDS011;8742;51.716;8.790;2022-10-29T06:53:50;24.57;;;7.33;;
17251;SDS011;8742;51.716;8.790;2022-10-29T06:56:18;27.90;;;8.03;;
17251;SDS011;8742;51.716;8.790;2022-10-29T06:58:45;20.27;;;6.93;;
17251;SDS011;8742;51.716;8.790;2022-10-29T07:01:11;19.20;;;6.87;;
17251;SDS011;8742;51.716;8.790;2022-10-29T07:03:38;24.50;;;7.33;;
17251;SDS011;8742;51.716;8.790;2022-10-29T07:06:05;15.33;;;6.40;;
17251;SDS011;8742;51.716;8.790;2022-10-29T07:08:32;17.87;;;7.10;;
17251;SDS011;8742;51.716;8.790;2022-10-29T07:11:01;14.93;;;6.40;;
17251;SDS011;8742;51.716;8.790;2022-10-29T07:13:28;25.93;;;6.93;;
17251;SDS011;8742;51.716;8.790;2022-10-29T07:15:55;17.23;;;6.83;;
17251;SDS011;8742;51.716;8.790;2022-10-29T07:18:22;22.70;;;7.03;;
17251;SDS011;8742;51.716;8.790;2022-10-29T07:20:49;17.23;;;6.73;;
17251;SDS011;8742;51.716;8.790;2022-10-29T07:23:15;18.30;;;7.23;;
17251;SDS011;8742;51.716;8.790;2022-10-29T07:25:42;24.27;;;8.07;;
17251;SDS011;8742;51.716;8.790;2022-10-29T07:28:11;14.27;;;7.33;;
17251;SDS011;8742;51.716;8.790;2022-10-29T07:30:40;21.93;;;7.80;;
17251;SDS011;8742;51.716;8.790;2022-10-29T07:33:08;27.97;;;7.90;;
17251;SDS011;8742;51.716;8.790;2022-10-29T07:35:35;20.20;;;7.50;;
17251;SDS011;8742;51.716;8.790;2022-10-29T07:38:02;22.10;;;7.57;;
17251;SDS011;8742;51.716;8.790;2022-10-29T07:40:30;14.17;;;6.80;;
17251;SDS011;8742;51.716;8.790;2022-10-29T07:42:57;24.43;;;8.47;;
17251;SDS011;8742;51.716;8.790;2022-10-29T07:45:26;21.20;;;7.77;;
17251;SDS011;8742;51.716;8.790;2022-10-29T07:47:59;19.83;;;7.07;;
17251;SDS011;8742;51.716;8.790;2022-10-29T07:50:27;17.40;;;7.27;;
17251;SDS011;8742;51.716;8.790;2022-10-29T07:52:54;20.93;;;6.87;;
17251;SDS011;8742;51.716;8.790;2022-10-29T07:55:23;23.23;;;7.17;;
17251;SDS011;8742;51.716;8.790;2022-10-29T07:57:54;27.23;;;6.80;;
17251;SDS011;8742;51.716;8.790;2022-10-29T08:00:22;19.10;;;6.80;;
17251;SDS011;8742;51.716;8.790;2022-10-29T08:02:51;32.40;;;6.97;;
17251;SDS011;8742;51.716;8.790;2022-10-29T08:05:19;16.33;;;6.30;;
17251;SDS011;8742;51.716;8.790;2022-10-29T08:07:46;16.43;;;6.33;;
17251;SDS011;8742;51.716;8.790;2022-10-29T08:10:13;18.60;;;6.13;;
17251;SDS011;8742;51.716;8.790;2022-10-29T08:12:40;20.90;;;7.07;;
17251;SDS011;8742;51.716;8.790;2022-10-29T08:15:13;14.47;;;6.20;;
17251;SDS011;8742;51.716;8.790;2022-10-29T08:17:40;17.53;;;6.80;;
17251;SDS011;8742;51.716;8.790;2022-10-29T08:20:08;16.57;;;6.27;;
17251;SDS011;8742;51.716;8.790;2022-10-29T08:22:36;15.87;;;6.13;;
17251;SDS011;8742;51.716;8.790;2022-10-29T08:25:03;13.40;;;6.03;;
17251;SDS011;8742;51.716;8.790;2022-10-29T08:27:30;13.33;;;6.20;;
17251;SDS011;8742;51.716;8.790;2022-10-29T08:29:57;17.77;;;6.03;;
17251;SDS011;8742;51.716;8.790;2022-10-29T08:32:24;16.00;;;6.63;;
17251;SDS011;8742;51.716;8.790;2022-10-29T08:34:50;14.47;;;5.97;;
17251;SDS011;8742;51.716;8.790;2022-10-29T08:37:19;16.43;;;6.07;;
17251;SDS011;8742;51.716;8.790;2022-10-29T08:39:45;22.60;;;6.00;;
17251;SDS011;8742;51.716;8.790;2022-10-29T08:42:15;16.57;;;5.73;;
17251;SDS011;8742;51.716;8.790;2022-10-29T08:44:57;14.83;;;5.40;;
17251;SDS011;8742;51.716;8.790;2022-10-29T08:47:46;13.13;;;5.93;;
17251;SDS011;8742;51.716;8.790;2022-10-29T08:50:33;13.83;;;5.77;;
17251;SDS011;8742;51.716;8.790;2022-10-29T08:53:07;14.77;;;5.57;;
17251;SDS011;8742;51.716;8.790;2022-10-29T08:55:41;20.27;;;5.80;;
17251;SDS011;8742;51.716;8.790;2022-10-29T08:58:10;12.17;;;5.27;;
17251;SDS011;8742;51.716;8.790;2022-10-29T09:00:47;20.77;;;5.57;;
17251;SDS011;8742;51.716;8.790;2022-10-29T09:03:17;18.00;;;5.67;;
17251;SDS011;8742;51.716;8.790;2022-10-29T09:05:48;15.60;;;5.43;;
17251;SDS011;8742;51.716;8.790;2022-10-29T09:08:27;13.07;;;5.30;;
17251;SDS011;8742;51.716;8.790;2022-10-29T09:11:05;14.03;;;5.27;;
17251;SDS011;8742;51.716;8.790;2022-10-29T09:13:46;20.77;;;6.10;;
17251;SDS011;8742;51.716;8.790;2022-10-29T09:16:28;22.63;;;5.73;;
17251;SDS011;8742;51.716;8.790;2022-10-29T09:21:54;14.43;;;5.20;;
17251;SDS011;8742;51.716;8.790;2022-10-29T09:24:29;17.10;;;5.50;;
17251;SDS011;8742;51.716;8.790;2022-10-29T09:27:02;19.20;;;5.37;;
17251;SDS011;8742;51.716;8.790;2022-10-29T09:29:50;18.37;;;5.57;;
17251;SDS011;8742;51.716;8.790;2022-10-29T09:32:28;13.30;;;5.33;;
17251;SDS011;8742;51.716;8.790;2022-10-29T09:35:00;19.93;;;4.97;;
17251;SDS011;8742;51.716;8.790;2022-10-29T09:37:32;31.97;;;5.50;;
17251;SDS011;8742;51.716;8.790;2022-10-29T09:40:14;16.57;;;4.87;;
17251;SDS011;8742;51.716;8.790;2022-10-29T09:42:54;21.17;;;5.07;;
17251;SDS011;8742;51.716;8.790;2022-10-29T09:45:27;14.87;;;5.57;;
17251;SDS011;8742;51.716;8.790;2022-10-29T09:48:03;16.67;;;5.70;;
17251;SDS011;8742;51.716;8.790;2022-10-29T09:50:37;30.33;;;5.77;;
17251;SDS011;8742;51.716;8.790;2022-10-29T09:53:11;20.43;;;4.87;;
17251;SDS011;8742;51.716;8.790;2022-10-29T09:55:40;17.27;;;5.03;;
17251;SDS011;8742;51.716;8.790;2022-10-29T09:58:10;10.50;;;4.70;;
17251;SDS011;8742;51.716;8.790;2022-10-29T10:00:44;18.97;;;4.97;;
17251;SDS011;8742;51.716;8.790;2022-10-29T10:03:11;14.90;;;4.50;;
17251;SDS011;8742;51.716;8.790;2022-10-29T10:05:55;15.73;;;4.40;;
17251;SDS011;8742;51.716;8.790;2022-10-29T10:08:23;20.43;;;4.50;;
17251;SDS011;8742;51.716;8.790;2022-10-29T10:10:51;13.53;;;4.90;;
17251;SDS011;8742;51.716;8.790;2022-10-29T10:13:19;16.93;;;4.90;;
17251;SDS011;8742;51.716;8.790;2022-10-29T10:15:49;13.80;;;4.95;;
17251;SDS011;8742;51.716;8.790;2022-10-29T10:18:19;18.70;;;4.97;;
17251;SDS011;8742;51.716;8.790;2022-10-29T10:20:47;14.50;;;4.93;;
17251;SDS011;8742;51.716;8.790;2022-10-29T10:23:27;21.27;;;4.53;;
17251;SDS011;8742;51.716;8.790;2022-10-29T10:25:57;19.00;;;4.60;;
17251;SDS011;8742;51.716;8.790;2022-10-29T10:28:25;12.27;;;4.40;;
17251;SDS011;8742;51.716;8.790;2022-10-29T10:31:06;11.90;;;4.20;;
17251;SDS011;8742;51.716;8.790;2022-10-29T10:33:42;10.23;;;4.30;;
17251;SDS011;8742;51.716;8.790;2022-10-29T10:36:13;10.23;;;4.05;;
17251;SDS011;8742;51.716;8.790;2022-10-29T10:38:40;10.40;;;4.30;;
17251;SDS011;8742;51.716;8.790;2022-10-29T10:41:12;15.85;;;4.70;;
17251;SDS011;8742;51.716;8.790;2022-10-29T10:43:41;15.68;;;4.25;;
17251;SDS011;8742;51.716;8.790;2022-10-29T10:46:11;16.35;;;4.57;;
17251;SDS011;8742;51.716;8.790;2022-10-29T10:48:41;16.15;;;4.38;;
17251;SDS011;8742;51.716;8.790;2022-10-29T10:51:13;11.88;;;5.13;;
17251;SDS011;8742;51.716;8.790;2022-10-29T10:53:45;17.90;;;4.45;;
17251;SDS011;8742;51.716;8.790;2022-10-29T10:56:17;11.30;;;3.85;;
17251;SDS011;8742;51.716;8.790;2022-10-29T10:58:50;9.27;;;3.75;;
17251;SDS011;8742;51.716;8.790;2022-10-29T11:01:24;12.38;;;5.15;;
17251;SDS011;8742;51.716;8.790;2022-10-29T11:03:57;16.85;;;6.05;;
17251;SDS011;8742;51.716;8.790;2022-10-29T11:06:31;25.40;;;5.15;;
17251;SDS011;8742;51.716;8.790;2022-10-29T11:09:02;21.48;;;4.97;;
17251;SDS011;8742;51.716;8.790;2022-10-29T11:11:36;17.70;;;5.22;;
17251;SDS011;8742;51.716;8.790;2022-10-29T11:14:06;15.63;;;4.78;;
17251;SDS011;8742;51.716;8.790;2022-10-29T11:16:40;20.83;;;5.00;;
17251;SDS011;8742;51.716;8.790;2022-10-29T11:19:13;11.80;;;4.57;;
17251;SDS011;8742;51.716;8.790;2022-10-29T11:21:48;14.93;;;4.32;;
17251;SDS011;8742;51.716;8.790;2022-10-29T11:24:25;16.42;;;4.57;;
17251;SDS011;8742;51.716;8.790;2022-10-29T11:27:01;20.63;;;4.55;;
17251;SDS011;8742;51.716;8.790;2022-10-29T11:29:34;16.25;;;5.47;;
17251;SDS011;8742;51.716;8.790;2022-10-29T11:32:11;21.88;;;5.75;;
17251;SDS011;8742;51.716;8.790;2022-10-29T11:34:44;21.33;;;5.50;;
17251;SDS011;8742;51.716;8.790;2022-10-29T11:37:17;16.60;;;5.03;;
17251;SDS011;8742;51.716;8.790;2022-10-29T11:39:51;17.27;;;5.15;;
17251;SDS011;8742;51.716;8.790;2022-10-29T11:42:25;22.27;;;5.43;;
17251;SDS011;8742;51.716;8.790;2022-10-29T11:44:51;13.80;;;5.30;;
17251;SDS011;8742;51.716;8.790;2022-10-29T11:47:23;12.68;;;5.43;;
17251;SDS011;8742;51.716;8.790;2022-10-29T11:50:14;10.52;;;4.55;;
17251;SDS011;8742;51.716;8.790;2022-10-29T11:52:51;16.77;;;4.70;;
17251;SDS011;8742;51.716;8.790;2022-10-29T11:55:26;11.88;;;4.95;;
17251;SDS011;8742;51.716;8.790;2022-10-29T11:58:01;19.42;;;5.32;;
17251;SDS011;8742;51.716;8.790;2022-10-29T12:00:37;14.32;;;4.78;;
17251;SDS011;8742;51.716;8.790;2022-10-29T12:03:17;22.67;;;5.13;;
17251;SDS011;8742;51.716;8.790;2022-10-29T12:05:55;15.90;;;5.13;;
17251;SDS011;8742;51.716;8.790;2022-10-29T12:08:35;22.35;;;4.80;;
17251;SDS011;8742;51.716;8.790;2022-10-29T12:11:16;19.70;;;5.47;;
17251;SDS011;8742;51.716;8.790;2022-10-29T12:13:51;11.82;;;4.82;;
17251;SDS011;8742;51.716;8.790;2022-10-29T12:16:26;12.13;;;5.18;;
17251;SDS011;8742;51.716;8.790;2022-10-29T12:19:05;19.48;;;5.00;;
17251;SDS011;8742;51.716;8.790;2022-10-29T12:21:42;22.85;;;5.40;;
17251;SDS011;8742;51.716;8.790;2022-10-29T12:24:19;16.63;;;5.38;;
17251;SDS011;8742;51.716;8.790;2022-10-29T12:26:51;16.80;;;5.30;;
17251;SDS011;8742;51.716;8.790;2022-10-29T12:29:28;19.50;;;5.35;;
17251;SDS011;8742;51.716;8.790;2022-10-29T12:32:05;14.10;;;4.75;;
17251;SDS011;8742;51.716;8.790;2022-10-29T12:34:37;21.15;;;5.32;;
17251;SDS011;8742;51.716;8.790;2022-10-29T12:37:11;16.88;;;6.00;;
17251;SDS011;8742;51.716;8.790;2022-10-29T12:39:43;15.45;;;4.93;;
17251;SDS011;8742;51.716;8.790;2022-10-29T12:42:14;20.92;;;5.43;;
17251;SDS011;8742;51.716;8.790;2022-10-29T12:44:49;22.08;;;5.60;;
17251;SDS011;8742;51.716;8.790;2022-10-29T12:47:29;16.48;;;4.80;;
17251;SDS011;8742;51.716;8.790;2022-10-29T12:50:00;17.27;;;4.80;;
17251;SDS011;8742;51.716;8.790;2022-10-29T12:52:40;16.55;;;5.47;;
17251;SDS011;8742;51.716;8.790;2022-10-29T12:55:11;22.15;;;4.93;;
17251;SDS011;8742;51.716;8.790;2022-10-29T12:57:40;17.77;;;5.20;;
17251;SDS011;8742;51.716;8.790;2022-10-29T13:09:17;17.83;;;5.07;;
17251;SDS011;8742;51.716;8.790;2022-10-29T13:11:46;14.95;;;5.03;;
17251;SDS011;8742;51.716;8.790;2022-10-29T13:14:17;16.08;;;5.18;;
17251;SDS011;8742;51.716;8.790;2022-10-29T13:16:49;21.83;;;4.60;;
17251;SDS011;8742;51.716;8.790;2022-10-29T13:19:21;14.13;;;4.95;;
17251;SDS011;8742;51.716;8.790;2022-10-29T13:22:00;23.73;;;4.97;;
17251;SDS011;8742;51.716;8.790;2022-10-29T13:27:52;17.85;;;4.85;;
17251;SDS011;8742;51.716;8.790;2022-10-29T13:30:22;18.45;;;4.82;;
17251;SDS011;8742;51.716;8.790;2022-10-29T13:32:52;14.02;;;4.38;;
17251;SDS011;8742;51.716;8.790;2022-10-29T13:35:39;15.70;;;5.25;;
17251;SDS011;8742;51.716;8.790;2022-10-29T13:38:12;13.57;;;4.68;;
17251;SDS011;8742;51.716;8.790;2022-10-29T13:43:40;23.40;;;5.45;;
17251;SDS011;8742;51.716;8.790;2022-10-29T13:49:14;12.20;;;5.53;;
17251;SDS011;8742;51.716;8.790;2022-10-29T13:51:48;16.90;;;5.45;;
17251;SDS011;8742;51.716;8.790;2022-10-29T13:54:20;17.10;;;5.78;;
17251;SDS011;8742;51.716;8.790;2022-10-29T13:59:21;24.88;;;5.28;;
17251;SDS011;8742;51.716;8.790;2022-10-29T14:01:57;10.27;;;4.35;;
17251;SDS011;8742;51.716;8.790;2022-10-29T14:04:33;19.67;;;5.07;;
17251;SDS011;8742;51.716;8.790;2022-10-29T14:07:03;25.55;;;5.07;;
17251;SDS011;8742;51.716;8.790;2022-10-29T14:09:37;14.38;;;5.22;;
17251;SDS011;8742;51.716;8.790;2022-10-29T14:12:08;20.52;;;5.05;;
17251;SDS011;8742;51.716;8.790;2022-10-29T14:14:45;18.73;;;4.82;;
17251;SDS011;8742;51.716;8.790;2022-10-29T14:17:18;19.38;;;5.30;;
17251;SDS011;8742;51.716;8.790;2022-10-29T14:19:47;13.55;;;4.97;;
17251;SDS011;8742;51.716;8.790;2022-10-29T14:22:27;13.30;;;4.78;;
17251;SDS011;8742;51.716;8.790;2022-10-29T14:24:58;30.50;;;4.95;;
17251;SDS011;8742;51.716;8.790;2022-10-29T14:27:26;20.25;;;5.28;;
17251;SDS011;8742;51.716;8.790;2022-10-29T14:30:07;13.30;;;4.72;;
17251;SDS011;8742;51.716;8.790;2022-10-29T14:32:36;13.55;;;4.60;;
17251;SDS011;8742;51.716;8.790;2022-10-29T14:35:06;14.35;;;4.22;;
17251;SDS011;8742;51.716;8.790;2022-10-29T14:37:34;18.77;;;5.30;;
17251;SDS011;8742;51.716;8.790;2022-10-29T14:40:04;21.38;;;5.03;;
17251;SDS011;8742;51.716;8.790;2022-10-29T14:42:39;18.00;;;4.50;;
17251;SDS011;8742;51.716;8.790;2022-10-29T14:45:15;12.88;;;4.40;;
17251;SDS011;8742;51.716;8.790;2022-10-29T14:47:46;14.48;;;4.55;;
17251;SDS011;8742;51.716;8.790;2022-10-29T14:50:17;13.43;;;4.22;;
17251;SDS011;8742;51.716;8.790;2022-10-29T14:52:47;17.77;;;4.43;;
17251;SDS011;8742;51.716;8.790;2022-10-29T14:55:17;20.30;;;4.78;;
17251;SDS011;8742;51.716;8.790;2022-10-29T14:57:47;18.58;;;4.50;;
17251;SDS011;8742;51.716;8.790;2022-10-29T15:00:21;16.98;;;5.13;;
17251;SDS011;8742;51.716;8.790;2022-10-29T15:02:49;12.77;;;4.70;;
17251;SDS011;8742;51.716;8.790;2022-10-29T15:05:22;23.20;;;4.63;;
17251;SDS011;8742;51.716;8.790;2022-10-29T15:07:51;23.63;;;4.82;;
17251;SDS011;8742;51.716;8.790;2022-10-29T15:10:29;25.08;;;4.60;;
17251;SDS011;8742;51.716;8.790;2022-10-29T15:12:56;15.75;;;4.75;;
17251;SDS011;8742;51.716;8.790;2022-10-29T15:15:24;20.42;;;4.22;;
17251;SDS011;8742;51.716;8.790;2022-10-29T15:17:53;26.90;;;4.80;;
17251;SDS011;8742;51.716;8.790;2022-10-29T15:20:25;23.60;;;4.25;;
17251;SDS011;8742;51.716;8.790;2022-10-29T15:22:56;16.38;;;3.97;;
17251;SDS011;8742;51.716;8.790;2022-10-29T15:25:26;14.88;;;4.13;;
17251;SDS011;8742;51.716;8.790;2022-10-29T15:27:56;14.38;;;4.53;;
17251;SDS011;8742;51.716;8.790;2022-10-29T15:30:27;17.27;;;4.82;;
17251;SDS011;8742;51.716;8.790;2022-10-29T15:32:57;15.67;;;4.20;;
17251;SDS011;8742;51.716;8.790;2022-10-29T15:35:27;14.83;;;4.43;;
17251;SDS011;8742;51.716;8.790;2022-10-29T15:37:54;17.03;;;4.57;;